createdAt,value
2022-09-24T00:02:44.376Z,9.80
2022-09-24T00:05:48.059Z,10.67
2022-09-24T00:08:54.351Z,10.18
2022-09-24T00:11:57.039Z,10.57
2022-09-24T00:14:59.657Z,8.77
2022-09-24T00:18:02.425Z,9.70
2022-09-24T00:21:13.329Z,9.23
2022-09-24T00:24:32.837Z,10.25
2022-09-24T00:27:35.552Z,9.50
2022-09-24T00:30:39.297Z,10.30
2022-09-24T00:33:43.411Z,9.10
2022-09-24T00:36:46.729Z,9.73
2022-09-24T00:39:51.070Z,8.90
2022-09-24T00:42:53.705Z,9.68
2022-09-24T00:46:03.785Z,9.57
2022-09-24T00:49:13.773Z,9.32
2022-09-24T00:52:17.441Z,8.23
2022-09-24T00:55:24.924Z,8.20
2022-09-24T00:58:29.593Z,8.68
2022-09-24T01:01:32.477Z,9.45
2022-09-24T01:04:35.180Z,9.00
2022-09-24T01:07:38.372Z,9.37
2022-09-24T01:10:51.795Z,9.70
2022-09-24T01:14:12.201Z,8.98
2022-09-24T01:17:25.615Z,9.73
2022-09-24T01:20:58.515Z,9.15
2022-09-24T01:24:23.062Z,8.73
2022-09-24T01:27:44.610Z,8.90
2022-09-24T01:30:51.937Z,8.60
2022-09-24T01:33:57.090Z,9.10
2022-09-24T01:37:02.029Z,8.55
2022-09-24T01:40:07.689Z,9.17
2022-09-24T01:43:12.796Z,9.98
2022-09-24T01:46:19.853Z,9.85
2022-09-24T01:49:22.797Z,9.68
2022-09-24T01:52:31.626Z,8.80
2022-09-24T01:55:38.509Z,9.67
2022-09-24T01:58:48.621Z,9.43
2022-09-24T02:02:00.231Z,9.50
2022-09-24T02:05:09.142Z,9.07
2022-09-24T02:08:17.568Z,8.63
2022-09-24T02:11:23.488Z,9.20
2022-09-24T02:14:28.510Z,9.80
2022-09-24T02:17:36.895Z,10.15
2022-09-24T02:20:42.414Z,8.75
2022-09-24T02:23:51.708Z,9.02
2022-09-24T02:26:55.079Z,9.90
2022-09-24T02:29:58.906Z,8.23
2022-09-24T02:33:23.317Z,8.68
2022-09-24T02:36:25.604Z,9.98
2022-09-24T02:39:28.531Z,9.27
2022-09-24T02:42:32.113Z,11.33
2022-09-24T02:45:34.798Z,9.27
2022-09-24T02:48:38.754Z,9.00
2022-09-24T02:51:41.701Z,9.25
2022-09-24T02:54:44.310Z,9.18
2022-09-24T02:57:48.211Z,9.97
2022-09-24T03:00:50.758Z,9.75
2022-09-24T03:03:54.900Z,9.65
2022-09-24T03:06:57.738Z,9.18
2022-09-24T03:10:00.458Z,9.95
2022-09-24T03:13:03.176Z,10.60
2022-09-24T03:16:06.057Z,10.05
2022-09-24T03:19:12.604Z,10.13
2022-09-24T03:22:15.164Z,8.90
2022-09-24T03:25:17.897Z,9.93
2022-09-24T03:28:20.780Z,11.47
2022-09-24T03:31:24.398Z,10.00
2022-09-24T03:34:28.490Z,10.68
2022-09-24T03:37:32.052Z,9.85
2022-09-24T03:40:34.755Z,10.27
2022-09-24T03:43:38.093Z,10.27
2022-09-24T03:46:40.883Z,9.87
2022-09-24T03:49:44.836Z,9.68
2022-09-24T03:52:48.674Z,10.15
2022-09-24T03:55:55.888Z,9.63
2022-09-24T03:58:58.422Z,10.20
2022-09-24T04:02:01.221Z,11.23
2022-09-24T04:05:05.749Z,10.63
2022-09-24T04:08:08.644Z,10.15
2022-09-24T04:11:11.216Z,11.30
2022-09-24T04:14:13.879Z,10.45
2022-09-24T04:17:17.503Z,10.67
2022-09-24T04:20:22.853Z,11.07
2022-09-24T04:23:25.572Z,11.70
2022-09-24T04:26:28.154Z,10.77
2022-09-24T04:29:30.873Z,12.05
2022-09-24T04:32:33.538Z,11.27
2022-09-24T04:35:37.584Z,11.35
2022-09-24T04:38:40.343Z,11.20
2022-09-24T04:41:42.907Z,10.70
2022-09-24T04:44:47.404Z,11.20
2022-09-24T04:47:52.475Z,11.53
2022-09-24T04:50:56.642Z,10.23
2022-09-24T04:53:59.825Z,10.90
2022-09-24T04:57:02.482Z,11.27
2022-09-24T05:00:08.603Z,10.48
2022-09-24T05:03:11.259Z,10.95
2022-09-24T05:06:15.361Z,11.45
2022-09-24T05:09:18.291Z,10.98
2022-09-24T05:12:21.681Z,11.03
2022-09-24T05:15:24.257Z,12.55
2022-09-24T05:18:27.136Z,12.85
2022-09-24T05:21:31.120Z,13.00
2022-09-24T05:24:34.937Z,12.70
2022-09-24T05:27:36.676Z,11.77
2022-09-24T05:30:39.405Z,11.82
2022-09-24T05:33:42.050Z,13.88
2022-09-24T05:36:46.121Z,12.48
2022-09-24T05:39:48.797Z,11.80
2022-09-24T05:42:51.918Z,10.63
2022-09-24T05:45:54.807Z,12.63
2022-09-24T05:48:57.821Z,12.93
2022-09-24T05:52:02.032Z,12.07
2022-09-24T05:55:05.266Z,12.00
2022-09-24T05:58:10.612Z,11.63
2022-09-24T06:01:13.277Z,11.25
2022-09-24T06:04:16.988Z,11.25
2022-09-24T06:07:21.573Z,10.15
2022-09-24T06:10:25.921Z,12.27
2022-09-24T06:13:28.546Z,10.90
2022-09-24T06:16:33.651Z,10.85
2022-09-24T06:19:36.373Z,11.25
2022-09-24T06:22:40.316Z,10.95
2022-09-24T06:25:43.042Z,11.20
2022-09-24T06:28:45.808Z,10.90
2022-09-24T06:31:48.832Z,12.57
2022-09-24T06:34:56.818Z,12.85
2022-09-24T06:38:02.985Z,11.63
2022-09-24T06:41:07.397Z,11.65
2022-09-24T06:44:10.047Z,12.10
2022-09-24T06:47:13.322Z,12.73
2022-09-24T06:50:15.909Z,11.82
2022-09-24T06:53:20.183Z,11.45
2022-09-24T06:56:22.885Z,11.07
2022-09-24T06:59:25.601Z,11.57
2022-09-24T07:02:28.586Z,11.98
2022-09-24T07:05:31.558Z,12.60
2022-09-24T07:08:35.868Z,12.80
2022-09-24T07:11:39.026Z,11.63
2022-09-24T07:14:41.574Z,11.93
2022-09-24T07:17:44.291Z,11.50
2022-09-24T07:20:52.665Z,12.07
2022-09-24T07:23:58.663Z,11.38
2022-09-24T07:27:01.550Z,11.67
2022-09-24T07:30:05.987Z,11.10
2022-09-24T07:33:09.135Z,11.13
2022-09-24T07:36:11.676Z,11.57
2022-09-24T07:39:16.371Z,12.15
2022-09-24T07:42:19.406Z,12.17
2022-09-24T07:45:22.383Z,13.00
2022-09-24T07:48:25.015Z,13.68
2022-09-24T07:51:29.021Z,11.50
2022-09-24T07:54:33.079Z,11.88
2022-09-24T07:57:35.714Z,10.67
2022-09-24T08:00:38.438Z,12.13
2022-09-24T08:03:41.322Z,12.63
2022-09-24T08:06:47.582Z,11.48
2022-09-24T08:09:51.913Z,14.38
2022-09-24T08:12:54.773Z,11.50
2022-09-24T08:15:59.885Z,12.07
2022-09-24T08:19:02.640Z,11.02
2022-09-24T08:22:05.415Z,12.13
2022-09-24T08:25:09.669Z,10.93
2022-09-24T08:28:12.317Z,11.57
2022-09-24T08:31:15.225Z,11.57
2022-09-24T08:34:17.978Z,10.68
2022-09-24T08:37:20.641Z,10.57
2022-09-24T08:40:27.662Z,11.55
2022-09-24T08:43:41.977Z,11.30
2022-09-24T08:47:06.468Z,12.00
2022-09-24T08:50:15.728Z,11.52
2022-09-24T08:53:23.857Z,11.43
2022-09-24T08:56:31.063Z,10.27
2022-09-24T08:59:36.637Z,10.67
2022-09-24T09:02:44.782Z,11.30
2022-09-24T09:05:55.250Z,10.25
2022-09-24T09:09:07.527Z,11.73
2022-09-24T09:12:16.504Z,12.25
2022-09-24T09:15:22.684Z,13.67
2022-09-24T09:18:30.597Z,11.53
2022-09-24T09:21:41.639Z,11.60
2022-09-24T09:24:48.931Z,12.13
2022-09-24T09:27:57.485Z,12.63
2022-09-24T09:31:11.160Z,12.10
2022-09-24T09:34:31.387Z,9.50
2022-09-24T09:37:43.897Z,11.50
2022-09-24T09:40:53.681Z,10.90
2022-09-24T09:44:03.799Z,10.77
2022-09-24T09:47:16.978Z,10.53
2022-09-24T09:50:27.552Z,10.57
2022-09-24T09:53:32.287Z,10.93
2022-09-24T09:56:37.097Z,10.10
2022-09-24T09:59:41.490Z,12.63
2022-09-24T10:02:44.823Z,9.40
2022-09-24T10:05:53.582Z,12.57
2022-09-24T10:09:09.326Z,11.80
2022-09-24T10:12:18.656Z,9.05
2022-09-24T10:15:25.077Z,11.77
2022-09-24T10:18:32.823Z,11.57
2022-09-24T10:21:37.829Z,9.87
2022-09-24T10:24:43.473Z,12.10
2022-09-24T10:27:46.193Z,11.43
2022-09-24T10:30:57.054Z,10.35
2022-09-24T10:34:02.303Z,9.20
2022-09-24T10:37:13.698Z,11.40
2022-09-24T10:40:17.635Z,10.20
2022-09-24T10:43:22.356Z,8.90
2022-09-24T10:46:54.866Z,10.82
2022-09-24T10:50:15.789Z,9.90
2022-09-24T10:53:29.676Z,9.53
2022-09-24T10:56:43.549Z,10.50
2022-09-24T10:59:56.794Z,9.45
2022-09-24T11:03:34.007Z,10.60
2022-09-24T11:06:52.064Z,9.03
2022-09-24T11:10:02.021Z,9.97
2022-09-24T11:13:15.431Z,9.35
2022-09-24T11:16:45.644Z,9.60
2022-09-24T11:20:07.187Z,9.40
2022-09-24T11:23:49.242Z,10.32
2022-09-24T11:27:06.406Z,10.05
2022-09-24T11:30:13.554Z,8.82
2022-09-24T11:33:32.559Z,10.70
2022-09-24T11:36:48.433Z,10.97
2022-09-24T11:40:06.411Z,9.63
2022-09-24T11:43:28.199Z,8.82
2022-09-24T11:46:45.369Z,9.40
2022-09-24T11:50:11.504Z,10.10
2022-09-24T11:53:23.611Z,11.87
2022-09-24T11:56:36.000Z,10.48
2022-09-24T11:59:50.368Z,10.55
2022-09-24T12:02:58.580Z,8.95
2022-09-24T12:06:06.982Z,8.38
2022-09-24T12:09:18.885Z,10.50
2022-09-24T12:12:27.922Z,11.75
2022-09-24T12:15:41.035Z,11.65
2022-09-24T12:18:57.194Z,8.93
2022-09-24T12:22:02.967Z,10.33
2022-09-24T12:25:08.950Z,10.25
2022-09-24T12:28:38.684Z,10.35
2022-09-24T12:32:08.286Z,9.45
2022-09-24T12:35:24.226Z,9.03
2022-09-24T12:38:34.145Z,11.68
2022-09-24T12:41:42.751Z,9.32
2022-09-24T12:44:54.695Z,11.45
2022-09-24T12:48:02.141Z,10.63
2022-09-24T12:51:10.899Z,9.80
2022-09-24T12:54:28.697Z,9.77
2022-09-24T12:57:36.748Z,9.70
2022-09-24T13:00:43.586Z,9.02
2022-09-24T13:03:47.676Z,9.43
2022-09-24T13:06:53.616Z,9.03
2022-09-24T13:09:56.692Z,10.80
2022-09-24T13:13:01.283Z,9.27
2022-09-24T13:16:08.016Z,9.23
2022-09-24T13:19:30.809Z,8.63
2022-09-24T13:22:35.878Z,9.23
2022-09-24T13:25:38.937Z,8.68
2022-09-24T13:29:01.600Z,10.00
2022-09-24T13:32:06.848Z,8.55
2022-09-24T13:35:21.167Z,10.30
2022-09-24T13:38:34.459Z,9.53
2022-09-24T13:41:46.463Z,9.38
2022-09-24T13:44:54.528Z,10.23
2022-09-24T13:48:03.421Z,8.02
2022-09-24T13:51:12.211Z,9.20
2022-09-24T13:54:20.385Z,9.40
2022-09-24T13:57:43.494Z,8.23
2022-09-24T14:00:46.560Z,8.90
2022-09-24T14:04:02.514Z,8.32
2022-09-24T14:07:05.425Z,9.05
2022-09-24T14:10:14.219Z,8.40
2022-09-24T14:13:21.778Z,10.27
2022-09-24T14:16:26.309Z,9.40
2022-09-24T14:19:34.362Z,7.55
2022-09-24T14:22:40.960Z,8.27
2022-09-24T14:25:44.204Z,13.60
2022-09-24T14:28:47.298Z,11.68
2022-09-24T14:31:55.721Z,8.43
2022-09-24T14:35:02.020Z,10.55
2022-09-24T14:38:13.050Z,8.63
2022-09-24T14:41:21.759Z,10.97
2022-09-24T14:44:27.546Z,10.40
2022-09-24T14:47:35.328Z,10.10
2022-09-24T14:50:41.944Z,8.85
2022-09-24T14:53:45.018Z,9.25
2022-09-24T14:56:52.125Z,7.90
2022-09-24T14:59:55.070Z,8.18
2022-09-24T15:03:01.556Z,8.77
2022-09-24T15:06:19.147Z,8.43
2022-09-24T15:09:26.781Z,8.90
2022-09-24T15:12:32.758Z,8.10
2022-09-24T15:15:36.587Z,9.02
2022-09-24T15:18:39.627Z,7.95
2022-09-24T15:21:44.096Z,8.85
2022-09-24T15:24:50.132Z,7.82
2022-09-24T15:27:54.779Z,7.93
2022-09-24T15:30:57.948Z,8.20
2022-09-24T15:34:00.956Z,8.40
2022-09-24T15:37:05.143Z,7.85
2022-09-24T15:40:13.059Z,8.77
2022-09-24T15:43:21.996Z,8.27
2022-09-24T15:46:29.905Z,8.60
2022-09-24T15:49:37.522Z,8.98
2022-09-24T15:52:48.015Z,10.23
2022-09-24T15:55:56.143Z,9.95
2022-09-24T15:58:58.952Z,8.43
2022-09-24T16:02:05.090Z,9.80
2022-09-24T16:05:12.438Z,9.10
2022-09-24T16:08:20.617Z,9.32
2022-09-24T16:11:23.583Z,9.52
2022-09-24T16:14:26.767Z,8.93
2022-09-24T16:17:29.829Z,9.60
2022-09-24T16:20:35.279Z,9.73
2022-09-24T16:23:48.190Z,10.40
2022-09-24T16:26:51.369Z,9.30
2022-09-24T16:29:54.572Z,9.27
2022-09-24T16:33:00.567Z,8.98
2022-09-24T16:36:10.137Z,9.00
2022-09-24T16:39:15.740Z,10.48
2022-09-24T16:42:20.630Z,10.00
2022-09-24T16:45:23.923Z,9.53
2022-09-24T16:48:27.055Z,9.77
2022-09-24T16:51:30.114Z,9.77
2022-09-24T16:54:35.858Z,11.02
2022-09-24T16:57:39.264Z,9.93
2022-09-24T17:00:43.744Z,10.60
2022-09-24T17:03:51.935Z,10.77
2022-09-24T17:06:55.224Z,11.80
2022-09-24T17:10:16.126Z,10.85
2022-09-24T17:13:19.713Z,11.95
2022-09-24T17:16:23.759Z,10.30
2022-09-24T17:19:32.509Z,13.93
2022-09-24T17:22:35.337Z,13.50
2022-09-24T17:25:41.595Z,13.52
2022-09-24T17:32:05.610Z,12.63
2022-09-24T17:35:09.197Z,13.55
2022-09-24T17:38:12.026Z,11.40
2022-09-24T17:41:20.013Z,11.23
2022-09-24T17:44:22.963Z,12.52
2022-09-24T17:47:46.460Z,11.87
2022-09-24T17:50:55.153Z,12.15
2022-09-24T17:53:58.423Z,12.38
2022-09-24T17:57:11.553Z,10.70
2022-09-24T18:00:17.398Z,11.37
2022-09-24T18:03:23.672Z,12.40
2022-09-24T18:06:32.047Z,13.00
2022-09-24T18:09:35.941Z,12.45
2022-09-24T18:12:42.691Z,13.05
2022-09-24T18:15:45.938Z,12.27
2022-09-24T18:18:50.204Z,12.60
2022-09-24T18:21:56.716Z,12.93
2022-09-24T18:25:00.938Z,14.10
2022-09-24T18:28:09.485Z,14.15
2022-09-24T18:31:13.319Z,13.13
2022-09-24T18:34:17.236Z,13.02
2022-09-24T18:37:20.160Z,13.40
2022-09-24T18:40:23.304Z,14.45
2022-09-24T18:43:27.666Z,13.85
2022-09-24T18:46:35.289Z,14.27
2022-09-24T18:49:38.116Z,17.48
2022-09-24T18:52:41.236Z,15.52
2022-09-24T18:55:45.024Z,15.32
2022-09-24T18:58:49.528Z,16.60
2022-09-24T19:01:52.430Z,15.27
2022-09-24T19:04:57.930Z,18.48
2022-09-24T19:08:00.921Z,15.65
2022-09-24T19:11:07.711Z,15.32
2022-09-24T19:14:14.936Z,15.95
2022-09-24T19:17:18.102Z,14.50
2022-09-24T19:20:21.162Z,14.40
2022-09-24T19:23:24.240Z,15.48
2022-09-24T19:26:29.706Z,13.25
2022-09-24T19:29:35.569Z,13.15
2022-09-24T19:32:43.479Z,13.00
2022-09-24T19:36:02.240Z,14.82
2022-09-24T19:39:07.255Z,13.82
2022-09-24T19:42:10.162Z,12.95
2022-09-24T19:45:14.892Z,12.68
2022-09-24T19:48:23.702Z,11.20
2022-09-24T19:51:28.225Z,10.27
2022-09-24T19:54:31.322Z,11.50
2022-09-24T19:57:34.986Z,9.30
2022-09-24T20:00:42.636Z,10.32
2022-09-24T20:03:45.933Z,9.40
2022-09-24T20:06:48.906Z,9.80
2022-09-24T20:09:51.815Z,10.10
2022-09-24T20:12:54.993Z,9.07
2022-09-24T20:16:01.071Z,9.85
2022-09-24T20:19:05.386Z,9.70
2022-09-24T20:22:16.574Z,9.13
2022-09-24T20:25:44.442Z,10.25
2022-09-24T20:28:48.541Z,8.98
2022-09-24T20:31:55.559Z,9.63
2022-09-24T20:34:59.254Z,9.43
2022-09-24T20:38:03.947Z,10.45
2022-09-24T20:41:40.285Z,9.80
2022-09-24T20:44:49.343Z,10.68
2022-09-24T20:47:59.693Z,11.65
2022-09-24T20:51:10.530Z,11.50
2022-09-24T20:54:19.983Z,10.57
2022-09-24T20:57:26.233Z,10.68
2022-09-24T21:00:50.870Z,10.90
2022-09-24T21:04:08.839Z,10.27
2022-09-24T21:07:29.320Z,10.10
2022-09-24T21:10:32.773Z,11.35
2022-09-24T21:13:40.610Z,10.88
2022-09-24T21:16:46.973Z,12.18
2022-09-24T21:20:12.180Z,13.93
2022-09-24T21:23:38.278Z,12.70
2022-09-24T21:30:36.126Z,11.27
2022-09-24T21:34:27.408Z,12.13
2022-09-24T21:37:53.441Z,12.07
2022-09-24T21:41:05.291Z,13.50
2022-09-24T21:44:52.217Z,12.10
2022-09-24T21:48:01.262Z,12.13
2022-09-24T21:51:21.350Z,11.90
2022-09-24T21:54:30.576Z,12.32
2022-09-24T21:57:41.516Z,10.65
2022-09-24T22:00:44.380Z,12.73
2022-09-24T22:03:48.254Z,13.23
2022-09-24T22:06:57.923Z,12.75
2022-09-24T22:10:06.983Z,11.73
2022-09-24T22:13:17.291Z,10.65
2022-09-24T22:16:20.847Z,10.40
2022-09-24T22:19:24.225Z,10.53
2022-09-24T22:22:32.495Z,10.38
2022-09-24T22:25:37.169Z,11.30
2022-09-24T22:28:40.693Z,12.32
2022-09-24T22:31:44.025Z,11.40
2022-09-24T22:35:04.743Z,12.20
2022-09-24T22:38:07.985Z,13.05
2022-09-24T22:41:18.931Z,12.55
2022-09-24T22:44:21.942Z,12.35
2022-09-24T22:47:34.957Z,11.80
2022-09-24T22:50:38.064Z,11.50
2022-09-24T22:53:51.431Z,12.38
2022-09-24T22:56:58.833Z,11.77
2022-09-24T23:00:02.870Z,13.27
2022-09-24T23:03:08.398Z,14.95
2022-09-24T23:06:33.913Z,12.43
2022-09-24T23:13:31.325Z,14.65
2022-09-24T23:24:18.477Z,12.80
2022-09-24T23:27:42.509Z,14.18
2022-09-24T23:31:17.851Z,14.18
2022-09-24T23:34:22.329Z,12.73
2022-09-24T23:37:28.575Z,12.88
2022-09-24T23:40:33.812Z,11.77
2022-09-24T23:43:47.516Z,12.38
2022-09-24T23:55:13.135Z,13.88
2022-09-24T23:58:23.167Z,12.33
